Latest Weather Observations for Gold Coast Seaway

IDQ60901

Issued at 6:31 pm EST Thursday 28 July 2016 (issued every 10 minutes, with the page automatically refreshed every 10 minutes)

About weather observations | Map of Brisbane area stations | Latest observations for Brisbane area | Other Formats
Station Details ID: 040764 Name: GOLD COAST SEAWAY Lat: -27.94 Lon: 153.43 Height: 2.98 m
Data from the previous 72 hours. | See also: Recent months at Gold Coast Seaway
Date/Time
EST
Temp
°C
App
Temp
°C
Dew
Point
°C
Rel
Hum
%
Delta-T
°C
Wind Press
QNH
hPa
Press
MSL
hPa
Rain since
9am
mm
Dir  Spd
km/h
Gust
km/h
Spd
kts
Gust
kts
28/06:30pm 17.3 14.4 10.9 66 3.4 SE 17 20 9 11 1022.8 1022.8 0.0
28/06:00pm 17.6 14.5 11.6 68 3.3 SE 19 22 10 12 1022.5 1022.5 0.0
28/05:30pm 17.8 14.3 10.9 64 3.7 SE 20 24 11 13 1022.3 1022.3 0.0
28/05:00pm 18.3 14.1 11.1 63 3.9 SE 24 28 13 15 1022.1 1022.1 0.0
28/04:30pm 19.1 14.6 11.4 61 4.2 SE 26 30 14 16 1021.9 1021.9 0.0
28/04:00pm 19.9 15.2 10.6 55 5.0 SE 26 30 14 16 1021.9 1021.9 0.0
28/03:30pm 20.3 15.5 10.4 53 5.4 SE 26 30 14 16 1021.8 1021.8 0.0
28/03:00pm 21.2 16.5 10.7 51 5.7 SE 26 28 14 15 1021.6 1021.6 0.0
28/02:30pm 21.7 17.2 10.2 48 6.3 SE 24 28 13 15 1021.7 1021.7 0.0
28/02:00pm 21.5 17.6 9.4 46 6.5 SE 20 26 11 14 1021.7 1021.7 0.0
28/01:30pm 22.2 18.2 9.0 43 7.0 SSE 20 26 11 14 1021.8 1021.8 0.0
28/01:00pm 22.2 17.5 7.6 39 7.6 SSE 22 26 12 14 1022.0 1022.0 0.0
28/12:30pm 22.0 16.8 7.4 39 7.6 SSE 24 28 13 15 1022.4 1022.4 0.0
28/12:00pm 22.0 16.9 7.8 40 7.4 SSE 24 28 13 15 1022.8 1022.8 0.0
28/11:30am 21.5 15.9 7.0 39 7.4 SSE 26 30 14 16 1023.2 1023.2 0.0
28/11:00am 21.2 16.3 7.1 40 7.2 SSE 22 28 12 15 1023.4 1023.4 0.0
28/10:30am 20.4 18.3 8.4 46 6.3 SSE 9 11 5 6 1023.7 1023.7 0.0
28/10:00am 19.1 16.2 4.8 39 6.9 SE 9 13 5 7 1023.8 1023.8 0.0
28/09:30am 18.2 15.4 3.3 37 6.9 WSW 7 11 4 6 1023.8 1023.8 0.0
28/09:00am 17.0 14.0 4.0 42 6.0 WNW 9 9 5 5 1023.6 1023.6 0.0
28/08:30am 15.3 12.4 4.7 49 5.0 WSW 9 11 5 6 1023.3 1023.3 0.0
28/08:00am 13.5 10.4 5.4 58 3.8 WSW 11 13 6 7 1023.3 1023.3 0.0
28/07:30am 12.4 9.1 4.4 58 3.6 W 11 15 6 8 1022.9 1022.9 0.0
28/07:00am 11.3 8.0 4.7 64 3.0 W 11 13 6 7 1022.3 1022.3 0.0
28/06:30am 11.1 7.8 4.3 63 3.0 WSW 11 13 6 7 1022.1 1022.1 0.0
28/06:00am 10.3 6.7 4.9 69 2.4 WSW 13 15 7 8 1021.8 1021.8 0.0
28/05:30am 8.5 5.6 4.9 78 1.6 WSW 9 11 5 6 1021.3 1021.3 0.0
28/05:00am 8.7 6.2 4.5 75 1.8 W 7 7 4 4 1021.1 1021.1 0.0
28/04:30am 9.8 6.9 4.6 70 2.3 W 9 11 5 6 1020.7 1020.7 0.0
28/04:00am 9.8 6.8 4.2 68 2.5 W 9 11 5 6 1020.5 1020.5 0.0
28/03:30am 11.3 8.4 4.7 64 3.0 W 9 13 5 7 1020.8 1020.8 0.0
28/03:00am 11.1 8.2 4.6 64 2.9 WSW 9 13 5 7 1020.8 1020.8 0.0
28/02:30am 11.5 8.6 4.9 64 3.0 W 9 11 5 6 1020.9 1020.9 0.0
28/02:00am 12.4 9.5 4.6 59 3.5 WSW 9 13 5 7 1021.0 1021.0 0.0
28/01:30am 12.3 9.0 4.8 60 3.4 WSW 11 15 6 8 1021.2 1021.2 0.0
28/01:00am 12.1 9.3 5.3 63 3.1 SW 9 13 5 7 1021.2 1021.2 0.0
28/12:30am 11.4 8.5 4.4 62 3.2 WSW 9 11 5 6 1021.2 1021.2 0.0
28/12:00am 11.8 9.1 3.8 58 3.6 SSW 7 9 4 5 1020.9 1020.9 0.0
 
Date/Time
EST
Temp
°C
App
Temp
°C
Dew
Point
°C
Rel
Hum
%
Delta-T
°C
Wind Press
QNH
hPa
Press
MSL
hPa
Rain since
9am
mm
Dir  Spd
km/h
Gust
km/h
Spd
kts
Gust
kts
27/11:30pm 14.2 11.2 3.9 50 4.7 SW 9 15 5 8 1020.7 1020.7 0.0
27/11:00pm 15.0 11.2 3.8 47 5.1 W 13 17 7 9 1020.4 1020.4 0.0
27/10:30pm 14.6 10.4 3.7 48 5.0 W 15 17 8 9 1020.3 1020.3 0.0
27/10:00pm 14.2 10.0 3.9 50 4.7 W 15 19 8 10 1020.4 1020.4 0.0
27/09:30pm 13.3 9.4 5.2 58 3.8 WNW 15 17 8 9 1020.1 1020.1 0.0
27/09:00pm 13.0 9.3 6.4 64 3.1 WNW 15 19 8 10 1020.1 1020.1 0.0
27/08:30pm 13.9 10.2 6.3 60 3.6 WNW 15 17 8 9 1020.0 1020.0 0.0
27/08:00pm 13.1 10.8 7.3 68 2.8 WNW 9 13 5 7 1019.6 1019.6 0.0
27/07:30pm 13.1 10.6 6.7 65 3.1 NNW 9 11 5 6 1019.2 1019.2 0.0
27/07:00pm 14.1 11.1 6.0 58 3.8 N 11 11 6 6 1018.5 1018.5 0.0
27/06:30pm 15.3 12.3 6.1 54 4.4 NNW 11 13 6 7 1018.0 1018.0 0.0
27/06:00pm 16.3 12.8 5.3 48 5.2 NNW 13 15 7 8 1017.6 1017.6 0.0
27/05:30pm 17.0 13.0 4.7 44 5.8 NNW 15 19 8 10 1017.3 1017.3 0.0
27/05:00pm 17.9 13.6 3.4 38 6.7 WNW 15 19 8 10 1016.9 1016.9 0.0
27/04:30pm 18.2 14.7 3.7 38 6.8 NNW 11 17 6 9 1016.5 1016.5 0.0
27/04:00pm 18.6 13.9 3.3 36 7.1 NW 17 20 9 11 1016.2 1016.2 0.0
27/03:30pm 19.0 13.8 3.6 36 7.2 NW 20 26 11 14 1016.0 1016.0 0.0
27/03:00pm 18.9 15.2 4.7 39 6.8 NNW 13 19 7 10 1015.9 1015.9 0.0
27/02:30pm 18.4 14.8 4.9 41 6.5 NNW 13 17 7 9 1016.0 1016.0 0.0
27/02:00pm 18.1 13.7 5.0 42 6.3 NNW 17 22 9 12 1016.3 1016.3 0.0
27/01:30pm 17.8 13.5 5.4 44 6.0 NNW 17 26 9 14 1016.6 1016.6 0.0
27/01:00pm 17.8 12.2 3.7 39 6.6 NW 22 26 12 14 1016.4 1016.4 0.0
27/12:30pm 18.5 12.0 0.6 30 7.9 NW 24 32 13 17 1017.0 1017.0 0.0
27/12:00pm 19.2 13.4 -0.2 27 8.5 WNW 20 28 11 15 1016.8 1016.8 0.0
27/11:30am 18.2 13.4 -0.1 29 7.9 W 15 22 8 12 1017.5 1017.5 0.0
27/11:00am 18.3 11.6 -1.0 27 8.2 WNW 24 32 13 17 1017.7 1017.7 0.0
27/10:30am 17.7 12.1 -0.1 30 7.7 WNW 19 24 10 13 1017.9 1017.9 0.0
27/10:00am 17.4 12.9 2.2 36 6.8 WNW 15 19 8 10 1017.8 1017.8 0.0
27/09:30am 16.7 11.0 2.7 39 6.4 WNW 22 28 12 15 1018.2 1018.2 0.0
27/09:00am 16.5 11.4 3.2 41 6.1 WNW 19 26 10 14 1017.4 1017.4 0.0
27/08:30am 15.9 10.6 3.0 42 5.9 WNW 20 26 11 14 1017.6 1017.6 0.0
27/08:00am 15.7 11.1 3.8 45 5.5 WNW 17 24 9 13 1017.9 1017.9 0.0
27/07:30am 15.2 9.9 4.9 50 4.8 NW 22 28 12 15 1017.7 1017.7 0.0
27/07:00am 15.4 9.9 3.9 46 5.3 WNW 22 28 12 15 1017.5 1017.5 0.0
27/06:30am 15.5 9.7 4.6 48 5.1 WNW 24 28 13 15 1017.5 1017.5 0.0
27/06:00am 15.6 9.8 4.6 48 5.1 NW 24 28 13 15 1016.8 1016.8 0.0
27/05:30am 15.7 11.0 5.0 49 5.1 NW 19 26 10 14 1016.4 1016.4 0.0
27/05:00am 15.2 10.7 6.2 55 4.3 NW 19 26 10 14 1016.8 1016.8 0.0
27/04:30am 15.0 11.6 6.0 55 4.3 NNW 13 17 7 9 1016.3 1016.3 0.0
27/04:00am 15.3 11.7 5.0 50 4.8 NNW 13 17 7 9 1016.1 1016.1 0.0
27/03:30am 15.7 11.4 5.3 50 4.9 NW 17 26 9 14 1016.3 1016.3 0.0
27/03:00am 15.6 11.3 5.2 50 4.9 NNW 17 20 9 11 1016.3 1016.3 0.0
27/02:30am 15.6 11.6 4.9 49 5.0 NNW 15 19 8 10 1016.0 1016.0 0.0
27/02:00am 16.1 12.5 5.1 48 5.2 NW 13 20 7 11 1016.5 1016.5 0.0
27/01:30am 16.1 11.8 5.4 49 5.1 NNW 17 20 9 11 1016.4 1016.4 0.0
27/01:00am 15.9 11.7 5.8 51 4.8 NW 17 22 9 12 1016.5 1016.5 0.0
27/12:30am 15.9 12.6 6.6 54 4.5 NNW 13 17 7 9 1016.2 1016.2 0.0
27/12:00am 15.4 12.1 6.2 54 4.4 NNW 13 17 7 9 1016.2 1016.2 0.0
 
Date/Time
EST
Temp
°C
App
Temp
°C
Dew
Point
°C
Rel
Hum
%
Delta-T
°C
Wind Press
QNH
hPa
Press
MSL
hPa
Rain since
9am
mm
Dir  Spd
km/h
Gust
km/h
Spd
kts
Gust
kts
26/11:30pm 16.0 12.5 5.6 50 5.0 NNW 13 17 7 9 1016.6 1016.6 0.0
26/11:00pm 16.3 12.8 5.6 49 5.1 NW 13 17 7 9 1016.5 1016.5 0.0
26/10:30pm 16.5 13.3 6.9 53 4.7 NW 13 15 7 8 1016.8 1016.8 0.0
26/10:00pm 16.6 13.3 6.4 51 5.0 NNW 13 17 7 9 1017.0 1017.0 0.0
26/09:30pm 16.6 13.0 4.9 46 5.6 NNW 13 17 7 9 1017.3 1017.3 0.0
26/09:00pm 16.4 11.9 6.2 51 5.0 NNW 19 26 10 14 1017.2 1017.2 0.0
26/08:30pm 16.2 12.3 5.5 49 5.1 NNW 15 19 8 10 1017.0 1017.0 0.0
26/08:00pm 16.6 12.9 6.1 50 5.1 NNW 15 22 8 12 1016.9 1016.9 0.0
26/07:30pm 16.7 12.9 5.6 48 5.3 NNW 15 19 8 10 1016.7 1016.7 0.0
26/07:00pm 16.9 12.9 4.9 45 5.7 NW 15 19 8 10 1016.4 1016.4 0.0
26/06:30pm 16.9 12.1 4.6 44 5.8 NW 19 24 10 13 1016.2 1016.2 0.0
26/06:00pm 17.2 12.4 4.9 44 5.9 NW 19 22 10 12 1015.8 1015.8 0.0
26/05:30pm 17.3 12.9 4.6 43 6.0 NW 17 20 9 11 1015.7 1015.7 0.0
26/05:00pm 17.6 13.1 4.2 41 6.3 NW 17 22 9 12 1015.8 1015.8 0.0
26/04:30pm 18.1 14.3 3.9 39 6.7 NNW 13 19 7 10 1015.9 1015.9 0.0
26/04:00pm 18.6 14.7 3.6 37 7.0 NNW 13 19 7 10 1015.9 1015.9 0.0
26/03:30pm 18.8 16.3 6.6 45 6.1 NNE 9 13 5 7 1015.7 1015.7 0.0
26/03:00pm 18.9 16.4 6.7 45 6.1 NNE 9 11 5 6 1015.7 1015.7 0.0
26/02:30pm 19.7 17.2 4.6 37 7.3 NE 7 9 4 5 1016.0 1016.0 0.0
26/02:00pm 18.6 16.2 5.1 41 6.5 NE 7 9 4 5 1016.4 1016.4 0.0
26/01:30pm 18.6 16.0 4.0 38 6.9 ENE 7 9 4 5 1016.6 1016.6 0.0
26/01:00pm 19.2 16.0 3.0 34 7.5 SE 9 9 5 5 1017.0 1017.0 0.0
26/12:30pm 19.8 16.9 2.6 32 8.0 ESE 7 9 4 5 1017.3 1017.3 0.0
26/12:00pm 18.7 15.9 3.3 36 7.2 E 7 9 4 5 1018.0 1018.0 0.0
26/11:30am 18.6 16.2 2.0 33 7.5 NW 4 7 2 4 1018.5 1018.5 0.0
26/11:00am 17.3 15.1 3.2 39 6.5 NW 4 7 2 4 1018.6 1018.6 0.0
26/10:30am 17.0 14.6 4.3 43 6.0 NW 6 9 3 5 1018.7 1018.7 0.0
26/10:00am 16.7 13.9 3.1 40 6.2 NW 7 7 4 4 1018.9 1018.9 0.0
26/09:30am 15.7 13.5 6.2 53 4.6 NW 7 9 4 5 1019.0 1019.0 0.0
26/09:00am 15.3 12.7 7.6 60 3.8 NW 11 13 6 7 1019.0 1019.0 0.0
26/08:30am 14.7 12.0 5.8 55 4.2 NW 9 13 5 7 1018.7 1018.7 0.0
26/08:00am 14.4 11.2 6.7 60 3.7 NNW 13 15 7 8 1018.4 1018.4 0.0
26/07:30am 14.6 11.4 4.9 52 4.5 NW 11 13 6 7 1018.3 1018.3 0.0
26/07:00am 14.0 10.2 3.8 50 4.6 WNW 13 17 7 9 1018.1 1018.1 0.0
26/06:30am 13.7 10.1 4.8 55 4.1 NW 13 15 7 8 1018.1 1018.1 0.0
26/06:00am 13.2 10.2 6.1 62 3.4 NW 11 15 6 8 1017.7 1017.7 0.0
26/05:30am 13.3 10.5 7.1 66 3.0 NW 11 13 6 7 1017.7 1017.7 0.0
26/05:00am 12.9 9.6 6.3 64 3.1 N 13 17 7 9 1017.3 1017.3 0.0
26/04:30am 14.1 10.5 5.2 55 4.2 NW 13 17 7 9 1016.9 1016.9 0.0
26/04:00am 14.1 9.9 5.7 57 4.0 NW 17 19 9 10 1017.0 1017.0 0.0
26/03:30am 14.3 11.8 6.4 59 3.8 NW 9 13 5 7 1016.9 1016.9 0.0
26/03:00am 14.6 11.2 5.7 55 4.2 NW 13 15 7 8 1016.8 1016.8 0.0
26/02:30am 15.1 11.4 6.1 55 4.3 NW 15 17 8 9 1017.3 1017.3 0.0
26/02:00am 15.3 11.6 6.1 54 4.4 NW 15 20 8 11 1017.2 1017.2 0.0
26/01:30am 15.5 11.5 4.8 49 5.0 NW 15 19 8 10 1017.6 1017.6 0.0
26/01:00am 14.3 11.7 6.2 58 3.9 WNW 9 13 5 7 1017.4 1017.4 0.0
26/12:30am 15.3 12.2 7.3 59 4.0 WNW 13 13 7 7 1017.8 1017.8 0.0
26/12:00am 14.8 12.3 8.1 64 3.3 NW 11 13 6 7 1017.8 1017.8 0.0
 
Date/Time
EST
Temp
°C
App
Temp
°C
Dew
Point
°C
Rel
Hum
%
Delta-T
°C
Wind Press
QNH
hPa
Press
MSL
hPa
Rain since
9am
mm
Dir  Spd
km/h
Gust
km/h
Spd
kts
Gust
kts
25/11:30pm 14.6 12.9 8.5 67 3.1 WNW 7 11 4 6 1017.6 1017.6 0.0
25/11:00pm 14.0 12.7 7.8 66 3.1 SSW 4 7 2 4 1017.6 1017.6 0.0
25/10:30pm 14.7 13.5 8.0 64 3.3 SSW 4 9 2 5 1017.6 1017.6 0.0
25/10:00pm 15.2 13.1 8.2 63 3.5 SW 9 11 5 6 1017.5 1017.5 0.0
25/09:30pm 15.0 13.0 8.7 66 3.2 SW 9 13 5 7 1017.6 1017.6 0.0
25/09:00pm 14.9 12.8 8.4 65 3.3 SW 9 13 5 7 1017.5 1017.5 0.0
25/08:30pm 15.5 13.1 8.5 63 3.5 WSW 11 13 6 7 1017.4 1017.4 0.0
25/08:00pm 15.6 13.1 8.4 62 3.6 SW 11 15 6 8 1017.4 1017.4 0.0
25/07:30pm 15.3 12.8 8.3 63 3.5 SSW 11 15 6 8 1017.1 1017.1 0.0
25/07:00pm 15.3 13.2 8.3 63 3.5 SW 9 13 5 7 1016.9 1016.9 0.0

Latest Capital City Observations: Canberra | Sydney | Melbourne | Brisbane | Adelaide | Perth | Hobart | Darwin

Other Formats:

Comma delimited format used in spreadsheet applications
http://www.bom.gov.au/fwo/IDQ60901/IDQ60901.94580.axf

JavaScript Object Notation format (JSON) in row-major order
http://www.bom.gov.au/fwo/IDQ60901/IDQ60901.94580.json